^^
Saratoga-Weather Station Historical Data
Daily Summary for April 23, 2021 Units:  English    Metric   Both
Daily Weekly Monthly Yearly Custom
  High: Low: Average:
Temperature: 63.3 °F 46.2 °F 52.7 °F
Dew Point: 47.7 °F 42.8 °F 44.6 °F
Humidity: 91% 49% 76%
Wind Speed: 11mph 0mph 2.9mph
Wind Gust: 19mph - -
Wind- - West
Pressure: 30 in 29.9 in -
Precipitation: 0 in    
Historical Graphs
 
 
Tabular Data for April 23, 2021
Time Temperature Dew Point Pressure Wind Wind Speed Wind Gust Humidity Rainfall Rate (Hourly) solar
00:03 49.5 °F 44.6 °F 29.9 in Calm   4 mph 83% 0.01 in 0 W/m2
00:08 49.5 °F 44.6 °F 29.9 in WNW 8.1 mph 10 mph 83% 0.01 in 0 W/m2
00:13 49.5 °F 44.6 °F 29.9 in NW 2 mph 6 mph 83% 0.01 in 0 W/m2
00:18 49.3 °F 44.4 °F 29.9 in WNW 4 mph 8 mph 83% 0.01 in 0 W/m2
00:23 49.1 °F 44.4 °F 29.9 in WNW 8.1 mph 10 mph 84% 0.01 in 0 W/m2
00:28 48.9 °F 44.2 °F 29.9 in West 2.9 mph 6 mph 84% 0.01 in 0 W/m2
00:33 48.7 °F 44.4 °F 29.9 in WNW 4 mph 8 mph 85% 0 in 0 W/m2
00:38 48.6 °F 44.2 °F 29.9 in West 2 mph 4 mph 85% 0 in 0 W/m2
00:43 48.6 °F 44.2 °F 29.9 in WSW 4 mph 6 mph 85% 0 in 0 W/m2
00:48 48.6 °F 44.2 °F 29.9 in West 2 mph 6 mph 85% 0 in 0 W/m2
00:54 48.4 °F 44.4 °F 29.9 in NW 2 mph 4 mph 86% 0 in 0 W/m2
00:59 48.2 °F 44.2 °F 29.9 in SW 4.9 mph 6 mph 86% 0 in 0 W/m2
01:04 48 °F 44.1 °F 29.9 in West 2 mph 7 mph 86% 0 in 0 W/m2
01:09 47.8 °F 44.2 °F 29.9 in WNW 0.9 mph 6 mph 87% 0 in 0 W/m2
01:14 47.7 °F 44.1 °F 29.9 in West 0.9 mph 4 mph 87% 0 in 0 W/m2
01:19 47.7 °F 44.1 °F 29.9 in NW 0.9 mph 3 mph 87% 0 in 0 W/m2
01:24 47.7 °F 44.2 °F 29.9 in NNW 2 mph 7 mph 88% 0 in 0 W/m2
01:29 47.7 °F 44.2 °F 29.9 in NW 2.9 mph 4 mph 88% 0 in 0 W/m2
01:34 47.5 °F 44.1 °F 29.9 in Calm   5 mph 88% 0 in 0 W/m2
01:39 47.5 °F 44.1 °F 29.9 in ENE 2 mph 3 mph 88% 0 in 0 W/m2
01:44 47.3 °F 44.2 °F 29.9 in NW 2.9 mph 5 mph 89% 0 in 0 W/m2
01:49 47.1 °F 44.1 °F 29.9 in WNW 2 mph 5 mph 89% 0 in 0 W/m2
01:54 47.1 °F 44.1 °F 29.9 in NW 0.9 mph 4 mph 89% 0 in 0 W/m2
01:59 47.3 °F 44.2 °F 29.9 in SSW 0.9 mph 3 mph 89% 0 in 0 W/m2
02:04 47.3 °F 43.9 °F 29.9 in NW 4 mph 7 mph 88% 0 in 0 W/m2
02:09 47.3 °F 43.9 °F 29.9 in SW 0.9 mph 3 mph 88% 0 in 0 W/m2
02:14 47.3 °F 43.9 °F 29.9 in Calm   6 mph 88% 0 in 0 W/m2
02:19 47.1 °F 44.1 °F 29.9 in Calm   8 mph 89% 0 in 0 W/m2
02:24 47.1 °F 43.7 °F 29.9 in Calm   2 mph 88% 0 in 0 W/m2
02:29 47.1 °F 44.1 °F 29.9 in WNW 0.9 mph 8 mph 89% 0 in 0 W/m2
02:34 46.9 °F 43.9 °F 29.9 in West 0.9 mph 7 mph 89% 0 in 0 W/m2
02:39 46.9 °F 43.9 °F 29.9 in West 2.9 mph 3 mph 89% 0 in 0 W/m2
02:44 46.8 °F 43.7 °F 29.9 in NNE 2 mph 6 mph 89% 0 in 0 W/m2
02:49 46.6 °F 43.5 °F 29.9 in NNW 0.9 mph 4 mph 89% 0 in 0 W/m2
02:54 46.6 °F 43.5 °F 29.9 in West 0.9 mph 6 mph 89% 0 in 0 W/m2
02:59 46.4 °F 43.7 °F 29.9 in SSW 2.9 mph 4 mph 90% 0 in 0 W/m2
03:04 46.4 °F 43.7 °F 29.9 in NW 2.9 mph 6 mph 90% 0 in 0 W/m2
03:09 46.2 °F 43.5 °F 29.9 in North 0.9 mph 3 mph 90% 0 in 0 W/m2
03:14 46.2 °F 43.5 °F 29.9 in SSW 2 mph 3 mph 90% 0 in 0 W/m2
03:19 46.2 °F 43.5 °F 29.9 in WNW 2.9 mph 5 mph 90% 0 in 0 W/m2
03:24 46.2 °F 43.5 °F 29.9 in NW 0.9 mph 4 mph 90% 0 in 0 W/m2
03:29 46.4 °F 43.7 °F 29.9 in South 2.9 mph 4 mph 90% 0 in 0 W/m2
03:34 46.6 °F 43.9 °F 29.9 in NNW 2 mph 5 mph 90% 0 in 0 W/m2
03:39 46.6 °F 43.9 °F 29.9 in NW 2.9 mph 6 mph 90% 0 in 0 W/m2
03:44 46.6 °F 43.5 °F 29.9 in NW 2.9 mph 7 mph 89% 0 in 0 W/m2
03:49 46.6 °F 43.5 °F 29.9 in WNW 2 mph 8 mph 89% 0 in 0 W/m2
03:54 46.6 °F 43.5 °F 29.9 in NNW 0.9 mph 4 mph 89% 0 in 0 W/m2
03:59 46.6 °F 43.5 °F 29.9 in NW 2 mph 8 mph 89% 0 in 0 W/m2
04:04 46.6 °F 43.5 °F 29.9 in NNW 2 mph 2 mph 89% 0 in 0 W/m2
04:09 46.6 °F 43.5 °F 29.9 in Calm   3 mph 89% 0 in 0 W/m2
04:14 46.6 °F 43.5 °F 29.9 in NNW 0.9 mph 1 mph 89% 0 in 0 W/m2
04:19 46.4 °F 43.3 °F 29.9 in Calm   4 mph 89% 0 in 0 W/m2
04:24 46.4 °F 43.3 °F 29.9 in SSW 2 mph 5 mph 89% 0 in 0 W/m2
04:29 46.2 °F 43.2 °F 29.9 in North 2 mph 4 mph 89% 0 in 0 W/m2
04:34 46.2 °F 43.5 °F 29.9 in NW 2.9 mph 5 mph 90% 0 in 0 W/m2
04:39 46.2 °F 43.5 °F 29.9 in NNW 0.9 mph 4 mph 90% 0 in 0 W/m2
04:44 46.4 °F 43.7 °F 29.9 in Calm   4 mph 90% 0 in 0 W/m2
04:49 46.6 °F 43.9 °F 29.9 in North 2.9 mph 4 mph 90% 0 in 0 W/m2
04:54 46.6 °F 43.9 °F 29.9 in Calm   5 mph 90% 0 in 0 W/m2
04:59 46.6 °F 43.9 °F 29.9 in Calm   4 mph 90% 0 in 0 W/m2
05:04 46.6 °F 43.9 °F 29.9 in NNE 0.9 mph 3 mph 90% 0 in 0 W/m2
05:09 46.6 °F 43.5 °F 29.9 in WNW 2.9 mph 4 mph 89% 0 in 0 W/m2
05:14 46.6 °F 43.9 °F 29.9 in NW 2 mph 5 mph 90% 0 in 0 W/m2
05:19 46.6 °F 43.9 °F 29.9 in NNW 2 mph 3 mph 90% 0 in 0 W/m2
05:24 46.6 °F 43.9 °F 29.9 in Calm   5 mph 90% 0 in 0 W/m2
05:29 46.6 °F 43.9 °F 29.9 in WSW 2.9 mph 7 mph 90% 0 in 0 W/m2
05:34 46.6 °F 43.9 °F 29.9 in Calm   3 mph 90% 0 in 0 W/m2
05:39 46.6 °F 43.9 °F 29.9 in NNW 0.9 mph 7 mph 90% 0 in 0 W/m2
05:44 46.6 °F 44.1 °F 29.9 in WSW 2.9 mph 4 mph 91% 0 in 0 W/m2
05:49 46.6 °F 44.1 °F 29.9 in WSW 2 mph 6 mph 91% 0 in 0 W/m2
05:54 46.6 °F 44.1 °F 29.9 in West 0.9 mph 5 mph 91% 0 in 5 W/m2
05:59 46.6 °F 44.1 °F 29.9 in NW 4 mph 7 mph 91% 0 in 5 W/m2
06:04 46.6 °F 44.1 °F 29.9 in West 2.9 mph 4 mph 91% 0 in 9 W/m2
06:09 46.6 °F 44.1 °F 29.9 in West 2.9 mph 4 mph 91% 0 in 19 W/m2
06:14 46.6 °F 44.1 °F 29.9 in Calm   2 mph 91% 0 in 23 W/m2
06:19 46.8 °F 44.2 °F 29.9 in WNW 0.9 mph 3 mph 91% 0 in 33 W/m2
06:25 46.8 °F 44.2 °F 29.9 in NW 2 mph 3 mph 91% 0 in 30 W/m2
06:30 46.8 °F 44.2 °F 29.9 in NNW 2 mph 7 mph 91% 0 in 26 W/m2
06:35 46.8 °F 44.2 °F 30 in WNW 6 mph 9 mph 91% 0 in 26 W/m2
06:40 46.9 °F 44.4 °F 30 in WNW 2 mph 4 mph 91% 0 in 37 W/m2
06:45 46.9 °F 44.4 °F 30 in WNW 6 mph 9 mph 91% 0 in 49 W/m2
06:50 46.9 °F 44.4 °F 30 in NW 2 mph 4 mph 91% 0 in 44 W/m2
06:55 47.1 °F 44.6 °F 30 in NW 0.9 mph 5 mph 91% 0 in 51 W/m2
07:00 47.1 °F 44.6 °F 30 in Calm   2 mph 91% 0 in 86 W/m2
07:05 47.3 °F 44.8 °F 30 in Calm   3 mph 91% 0 in 44 W/m2
07:10 47.3 °F 44.8 °F 30 in West 0.9 mph 4 mph 91% 0 in 30 W/m2
07:15 47.3 °F 44.8 °F 30 in NW 0.9 mph 4 mph 91% 0 in 25 W/m2
07:20 47.1 °F 44.6 °F 30 in Calm   2 mph 91% 0 in 42 W/m2
07:25 47.1 °F 44.6 °F 30 in East 0.9 mph 3 mph 91% 0 in 32 W/m2
07:30 47.1 °F 44.6 °F 30 in NE 2 mph 2 mph 91% 0 in 58 W/m2
07:35 47.5 °F 45 °F 30 in Calm   2 mph 91% 0 in 84 W/m2
07:40 47.5 °F 45 °F 30 in NW 0.9 mph 2 mph 91% 0 in 54 W/m2
07:45 47.7 °F 45.1 °F 30 in NW 4 mph 4 mph 91% 0 in 42 W/m2
07:50 47.7 °F 45.1 °F 30 in NNW 2.9 mph 5 mph 91% 0 in 102 W/m2
07:55 47.8 °F 45.3 °F 30 in Calm   5 mph 91% 0 in 74 W/m2
08:00 47.8 °F 45.3 °F 30 in NW 4 mph 4 mph 91% 0 in 62 W/m2
08:05 47.8 °F 45.3 °F 30 in WNW 2.9 mph 5 mph 91% 0 in 40 W/m2
08:10 47.8 °F 45.3 °F 30 in Calm   4 mph 91% 0 in 56 W/m2
08:15 48 °F 45.5 °F 30 in West 2.9 mph 6 mph 91% 0 in 100 W/m2
08:20 48 °F 45.5 °F 30 in WNW 4 mph 9 mph 91% 0 in 102 W/m2
08:25 48 °F 45.1 °F 30 in WSW 4 mph 9 mph 90% 0 in 69 W/m2
08:30 48.2 °F 45.3 °F 30 in NNW 2.9 mph 3 mph 90% 0 in 104 W/m2
08:35 48.4 °F 45.5 °F 30 in WNW 2 mph 9 mph 90% 0 in 146 W/m2
08:40 48.6 °F 45.7 °F 30 in WSW 2 mph 5 mph 90% 0 in 114 W/m2
08:45 48.6 °F 45.7 °F 30 in Calm   3 mph 90% 0 in 98 W/m2
08:50 48.7 °F 45.9 °F 30 in NE 2.9 mph 4 mph 90% 0 in 77 W/m2
08:55 48.7 °F 45.9 °F 30 in WSW 0.9 mph 3 mph 90% 0 in 105 W/m2
09:00 48.7 °F 45.7 °F 30 in WNW 2 mph 6 mph 89% 0 in 116 W/m2
09:05 48.9 °F 45.9 °F 30 in WNW 2 mph 5 mph 89% 0 in 114 W/m2
09:10 48.9 °F 45.9 °F 30 in NNW 2.9 mph 4 mph 89% 0 in 151 W/m2
09:15 49.3 °F 46.2 °F 30 in West 2.9 mph 5 mph 89% 0 in 171 W/m2
09:20 49.3 °F 45.9 °F 30 in NW 4 mph 8 mph 88% 0 in 186 W/m2
09:25 49.5 °F 46 °F 30 in SW 0.9 mph 6 mph 88% 0 in 128 W/m2
09:30 49.6 °F 46.2 °F 30 in NW 4 mph 4 mph 88% 0 in 125 W/m2
09:35 49.5 °F 45.7 °F 30 in West 2 mph 7 mph 87% 0 in 183 W/m2
09:40 49.5 °F 45.7 °F 30 in NW 2 mph 8 mph 87% 0 in 162 W/m2
09:45 49.6 °F 46.2 °F 30 in NW 2.9 mph 6 mph 88% 0 in 218 W/m2
09:50 49.6 °F 46.2 °F 30 in SSW 2 mph 8 mph 88% 0 in 185 W/m2
09:55 49.5 °F 46 °F 30 in WNW 6 mph 6 mph 88% 0 in 287 W/m2
10:00 49.6 °F 46.2 °F 30 in ENE 0.9 mph 4 mph 88% 0 in 285 W/m2
10:05 49.8 °F 46.4 °F 30 in NNW 0.9 mph 3 mph 88% 0 in 195 W/m2
10:10 50.4 °F 46.6 °F 30 in SSE 2 mph 5 mph 87% 0 in 417 W/m2
10:15 50.5 °F 46.8 °F 30 in West 6 mph 9 mph 87% 0 in 417 W/m2
10:20 51.1 °F 47.3 °F 30 in WNW 2.9 mph 6 mph 87% 0 in 798 W/m2
10:25 52 °F 47.7 °F 30 in West 6.9 mph 7 mph 85% 0 in 387 W/m2
10:30 52.2 °F 47.1 °F 30 in NW 2.9 mph 5 mph 83% 0 in 362 W/m2
10:35 52.2 °F 47.1 °F 30 in SW 6 mph 6 mph 83% 0 in 329 W/m2
10:40 52.3 °F 46.9 °F 30 in WNW 6.9 mph 7 mph 82% 0 in 271 W/m2
10:45 52.3 °F 46.9 °F 30 in Calm   5 mph 82% 0 in 200 W/m2
10:50 52.3 °F 46.9 °F 30 in NNW 2 mph 6 mph 82% 0 in 176 W/m2
10:55 52.3 °F 47.3 °F 30 in WNW 0.9 mph 2 mph 83% 0 in 251 W/m2
11:00 52.5 °F 47.1 °F 30 in NNW 2.9 mph 8 mph 82% 0 in 348 W/m2
11:05 52.9 °F 47.3 °F 30 in NW 0.9 mph 8 mph 81% 0 in 348 W/m2
11:10 53.1 °F 46.8 °F 30 in NNW 2 mph 9 mph 79% 0 in 383 W/m2
11:16 53.2 °F 47.3 °F 30 in North 0.9 mph 5 mph 80% 0 in 153 W/m2
11:21 53.1 °F 46.8 °F 30 in WNW 2 mph 5 mph 79% 0 in 123 W/m2
11:26 52.9 °F 46.6 °F 30 in West 2 mph 6 mph 79% 0 in 155 W/m2
11:31 52.7 °F 46.4 °F 30 in Calm   4 mph 79% 0 in 221 W/m2
11:36 53.1 °F 46.8 °F 30 in NW 2.9 mph 7 mph 79% 0 in 870 W/m2
11:41 54 °F 46.9 °F 30 in North 2 mph 10 mph 77% 0 in 1055 W/m2
11:46 54 °F 46.2 °F 30 in NW 4 mph 10 mph 75% 0 in 257 W/m2
11:51 54.5 °F 46.8 °F 30 in WNW 8.1 mph 8 mph 75% 0 in 1005 W/m2
11:56 54.9 °F 45.7 °F 30 in West 6.9 mph 15 mph 71% 0 in 914 W/m2
12:01 55.2 °F 45.7 °F 30 in WSW 4.9 mph 9 mph 70% 0 in 921 W/m2
12:06 55.6 °F 45.5 °F 30 in West 8.1 mph 13 mph 69% 0 in 933 W/m2
12:11 55.2 °F 45.1 °F 30 in NW 0.9 mph 5 mph 69% 0 in 255 W/m2
12:16 55.6 °F 45.1 °F 30 in WNW 2.9 mph 11 mph 68% 0 in 330 W/m2
12:21 55.6 °F 45.1 °F 30 in WNW 4 mph 7 mph 68% 0 in 316 W/m2
12:26 55.8 °F 45.7 °F 30 in NW 4 mph 5 mph 69% 0 in 373 W/m2
12:31 55.8 °F 45.3 °F 30 in WSW 2 mph 6 mph 68% 0 in 334 W/m2
12:36 55.9 °F 45.1 °F 30 in WSW 2 mph 5 mph 67% 0 in 533 W/m2
12:41 56.7 °F 45.5 °F 30 in WNW 2 mph 8 mph 66% 0 in 1199 W/m2
12:46 56.8 °F 45.7 °F 30 in North 4.9 mph 8 mph 66% 0 in 350 W/m2
12:51 56.7 °F 45.5 °F 30 in WNW 2 mph 10 mph 66% 0 in 237 W/m2
12:56 56.5 °F 45.3 °F 30 in WNW 4.9 mph 10 mph 66% 0 in 258 W/m2
13:01 56.1 °F 45.7 °F 30 in WSW 6.9 mph 7 mph 68% 0 in 283 W/m2
13:06 56.1 °F 45.3 °F 30 in West 6 mph 6 mph 67% 0 in 385 W/m2
13:11 56.5 °F 45.7 °F 30 in NW 4 mph 7 mph 67% 0 in 522 W/m2
13:16 56.5 °F 45.7 °F 30 in ENE 0.9 mph 3 mph 67% 0 in 410 W/m2
13:21 56.7 °F 45.9 °F 30 in West 0.9 mph 6 mph 67% 0 in 1253 W/m2
13:26 57.4 °F 46.6 °F 30 in SW 8.9 mph 13 mph 67% 0 in 1111 W/m2
13:31 57.9 °F 45.9 °F 30 in West 4 mph 12 mph 64% 0 in 1137 W/m2
13:36 58.3 °F 45.3 °F 30 in NW 4 mph 11 mph 62% 0 in 432 W/m2
13:41 58.5 °F 45.5 °F 30 in NNW 10.1 mph 19 mph 62% 0 in 336 W/m2
13:46 57.9 °F 43.7 °F 30 in West 6 mph 17 mph 59% 0 in 329 W/m2
13:51 57.6 °F 44.2 °F 30 in SW 4 mph 9 mph 61% 0 in 387 W/m2
13:56 57.7 °F 44.8 °F 30 in NNW 2.9 mph 17 mph 62% 0 in 986 W/m2
14:01 58.5 °F 45.1 °F 30 in West 8.1 mph 10 mph 61% 0 in 984 W/m2
14:06 59.2 °F 44.8 °F 30 in NNW 4 mph 7 mph 59% 0 in 1018 W/m2
14:11 59.4 °F 43.7 °F 30 in WNW 4 mph 9 mph 56% 0 in 1062 W/m2
14:16 59.5 °F 44.8 °F 30 in West 6 mph 9 mph 58% 0 in 313 W/m2
14:21 59.2 °F 44.4 °F 30 in WNW 8.9 mph 15 mph 58% 0 in 218 W/m2
14:26 58.5 °F 44.2 °F 30 in WNW 4.9 mph 12 mph 59% 0 in 350 W/m2
14:31 58.3 °F 44.4 °F 30 in Calm   15 mph 60% 0 in 494 W/m2
14:36 58.6 °F 44.4 °F 30 in North 2.9 mph 8 mph 59% 0 in 1146 W/m2
14:41 59.5 °F 43.9 °F 30 in NW 8.9 mph 12 mph 56% 0 in 972 W/m2
14:46 59.7 °F 43 °F 30 in WNW 11 mph 16 mph 54% 0 in 958 W/m2
14:51 59.7 °F 43.5 °F 30 in WSW 4 mph 10 mph 55% 0 in 990 W/m2
14:56 59.7 °F 43.5 °F 30 in WNW 2.9 mph 13 mph 55% 0 in 330 W/m2
15:01 59.9 °F 44.2 °F 30 in SSW 2.9 mph 7 mph 56% 0 in 471 W/m2
15:06 60.4 °F 44.2 °F 30 in NE 2.9 mph 8 mph 55% 0 in 1037 W/m2
15:11 61 °F 44.8 °F 30 in NW 6.9 mph 8 mph 55% 0 in 1046 W/m2
15:16 60.3 °F 44.1 °F 30 in WNW 2.9 mph 13 mph 55% 0 in 448 W/m2
15:21 60.6 °F 45.3 °F 30 in North 2.9 mph 9 mph 57% 0 in 911 W/m2
15:26 61 °F 44.2 °F 30 in NW 4 mph 8 mph 54% 0 in 949 W/m2
15:31 61.5 °F 44.2 °F 30 in West 6 mph 11 mph 53% 0 in 942 W/m2
15:36 62.1 °F 44.2 °F 30 in NW 8.9 mph 13 mph 52% 0 in 944 W/m2
15:41 61.5 °F 44.8 °F 30 in WSW 6.9 mph 9 mph 54% 0 in 220 W/m2
15:46 61.2 °F 44.8 °F 30 in WSW 2 mph 9 mph 55% 0 in 972 W/m2
15:51 61.3 °F 44.1 °F 30 in West 4 mph 7 mph 53% 0 in 246 W/m2
15:56 61 °F 43.7 °F 30 in WSW 8.1 mph 13 mph 53% 0 in 564 W/m2
16:01 61.3 °F 44.6 °F 30 in WNW 2 mph 7 mph 54% 0 in 1034 W/m2
16:06 61.5 °F 43.7 °F 30 in WNW 6.9 mph 12 mph 52% 0 in 320 W/m2
16:11 60.8 °F 43.5 °F 30 in West 6 mph 8 mph 53% 0 in 325 W/m2
16:16 60.4 °F 42.8 °F 30 in NW 4.9 mph 9 mph 52% 0 in 262 W/m2
16:21 60.1 °F 43 °F 30 in NW 2 mph 12 mph 53% 0 in 385 W/m2
16:26 60.4 °F 43.2 °F 30 in NW 2.9 mph 8 mph 53% 0 in 459 W/m2
16:31 61 °F 43.7 °F 30 in WSW 4.9 mph 12 mph 53% 0 in 195 W/m2
16:36 60.6 °F 43.9 °F 30 in NW 2.9 mph 11 mph 54% 0 in 411 W/m2
16:41 60.6 °F 43.9 °F 30 in NNW 2.9 mph 9 mph 54% 0 in 381 W/m2
16:46 61 °F 43.7 °F 30 in NNW 2.9 mph 11 mph 53% 0 in 954 W/m2
16:51 61.2 °F 44.4 °F 30 in West 6 mph 9 mph 54% 0 in 287 W/m2
16:56 61.7 °F 45 °F 30 in WNW 2.9 mph 7 mph 54% 0 in 888 W/m2
17:01 61.5 °F 43.7 °F 30 in WNW 4.9 mph 7 mph 52% 0 in 265 W/m2
17:06 61.7 °F 44.4 °F 30 in WNW 4 mph 8 mph 53% 0 in 411 W/m2
17:11 61.5 °F 43.7 °F 30 in West 2 mph 4 mph 52% 0 in 176 W/m2
17:16 61.2 °F 43.9 °F 30 in NNW 2 mph 4 mph 53% 0 in 255 W/m2
17:22 61.3 °F 43.5 °F 30 in East 2 mph 6 mph 52% 0 in 304 W/m2
17:27 61.3 °F 44.1 °F 30 in NW 4 mph 6 mph 53% 0 in 234 W/m2
17:32 61.3 °F 44.1 °F 30 in SE 2.9 mph 4 mph 53% 0 in 555 W/m2
17:37 62.1 °F 44.2 °F 30 in North 2 mph 7 mph 52% 0 in 810 W/m2
17:42 62.1 °F 44.2 °F 30 in SSW 0.9 mph 3 mph 52% 0 in 464 W/m2
17:47 62.4 °F 45.1 °F 30 in West 2 mph 5 mph 53% 0 in 686 W/m2
17:52 62.4 °F 44.6 °F 30 in Calm   9 mph 52% 0 in 673 W/m2
17:57 62.8 °F 45 °F 30 in WSW 2.9 mph 5 mph 52% 0 in 626 W/m2
18:02 62.8 °F 44.4 °F 30 in NNW 2.9 mph 5 mph 51% 0 in 429 W/m2
18:07 62.4 °F 45.1 °F 30 in SSW 4 mph 4 mph 53% 0 in 677 W/m2
18:12 62.4 °F 44.1 °F 30 in WNW 4.9 mph 8 mph 51% 0 in 631 W/m2
18:17 62.8 °F 44.4 °F 30 in West 2.9 mph 10 mph 51% 0 in 598 W/m2
18:22 62.4 °F 43.5 °F 30 in West 6 mph 9 mph 50% 0 in 113 W/m2
18:27 61.7 °F 44.4 °F 30 in West 2.9 mph 7 mph 53% 0 in 239 W/m2
18:32 61.3 °F 43.5 °F 30 in NW 2 mph 5 mph 52% 0 in 91 W/m2
18:37 61.2 °F 43.3 °F 30 in West 2.9 mph 8 mph 52% 0 in 461 W/m2
18:42 61.5 °F 43.2 °F 30 in Calm   4 mph 51% 0 in 396 W/m2
18:47 62.2 °F 43.9 °F 30 in SW 2.9 mph 5 mph 51% 0 in 352 W/m2
18:52 63 °F 44.1 °F 30 in West 2 mph 7 mph 50% 0 in 320 W/m2
18:57 63.3 °F 44.4 °F 30 in West 4 mph 4 mph 50% 0 in 294 W/m2
19:02 63.3 °F 43.9 °F 30 in WNW 2 mph 7 mph 49% 0 in 70 W/m2
19:07 63 °F 44.1 °F 30 in NW 4.9 mph 8 mph 50% 0 in 69 W/m2
19:12 62.1 °F 44.2 °F 30 in NW 0.9 mph 3 mph 52% 0 in 91 W/m2
19:17 61.5 °F 43.2 °F 30 in WNW 2 mph 6 mph 51% 0 in 346 W/m2
Juneau County Weather
Compliments of Weather Underground - 2 mb